createdAt,value
2024-03-20T00:00:22.444Z,9.70
2024-03-20T00:02:49.769Z,9.10
2024-03-20T00:05:22.713Z,9.80
2024-03-20T00:07:50.103Z,9.70
2024-03-20T00:10:18.072Z,10.60
2024-03-20T00:12:50.258Z,10.70
2024-03-20T00:15:17.701Z,10.90
2024-03-20T00:17:46.998Z,12.20
2024-03-20T00:20:18.448Z,12.80
2024-03-20T00:22:46.008Z,13.30
2024-03-20T00:25:14.287Z,14.10
2024-03-20T00:27:41.847Z,13.60
2024-03-20T00:30:11.380Z,14.00
2024-03-20T00:32:38.913Z,14.30
2024-03-20T00:35:09.197Z,14.70
2024-03-20T00:37:36.694Z,15.50
2024-03-20T00:40:05.392Z,15.60
2024-03-20T00:42:32.761Z,14.90
2024-03-20T00:45:00.908Z,15.10
2024-03-20T00:47:28.480Z,15.40
2024-03-20T00:49:55.851Z,15.50
2024-03-20T00:52:26.083Z,15.10
2024-03-20T00:54:56.782Z,15.40
2024-03-20T00:57:28.339Z,15.30
2024-03-20T00:59:55.999Z,16.10
2024-03-20T01:02:24.276Z,14.90
2024-03-20T01:04:51.941Z,14.60
2024-03-20T01:07:19.397Z,15.00
2024-03-20T01:09:47.065Z,15.10
2024-03-20T01:12:14.517Z,15.50
2024-03-20T01:14:41.769Z,15.40
2024-03-20T01:17:09.228Z,14.50
2024-03-20T01:19:36.692Z,14.60
2024-03-20T01:22:04.160Z,16.00
2024-03-20T01:24:40.470Z,14.60
2024-03-20T01:27:07.661Z,16.30
2024-03-20T01:29:35.015Z,16.50
2024-03-20T01:32:02.373Z,16.20
2024-03-20T01:34:30.033Z,15.80
2024-03-20T01:36:57.697Z,16.50
2024-03-20T01:39:25.917Z,16.20
2024-03-20T01:41:53.148Z,16.20
2024-03-20T01:44:20.489Z,17.10
2024-03-20T01:46:48.342Z,16.60
2024-03-20T01:49:18.260Z,17.70
2024-03-20T01:51:45.932Z,17.40
2024-03-20T02:00:28.825Z,18.00
2024-03-20T02:03:05.168Z,19.10
2024-03-20T02:05:35.376Z,18.50
2024-03-20T02:08:03.050Z,19.00
2024-03-20T02:10:33.401Z,18.70
2024-03-20T02:15:53.782Z,20.80
2024-03-20T02:18:21.466Z,21.00
2024-03-20T02:20:51.689Z,21.10
2024-03-20T02:23:24.616Z,21.30
2024-03-20T02:26:10.025Z,22.00
2024-03-20T02:28:42.875Z,22.20
2024-03-20T02:31:15.915Z,22.00
2024-03-20T02:33:49.907Z,22.00
2024-03-20T02:36:17.583Z,21.90
2024-03-20T02:38:45.554Z,22.70
2024-03-20T02:41:19.857Z,23.90
2024-03-20T02:43:47.522Z,23.20
2024-03-20T02:46:16.730Z,23.60
2024-03-20T02:48:51.662Z,22.40
2024-03-20T02:51:19.316Z,23.20
2024-03-20T02:53:50.034Z,22.80
2024-03-20T02:56:34.200Z,21.10
2024-03-20T02:59:06.063Z,20.20
2024-03-20T03:01:47.955Z,20.90
2024-03-20T03:04:15.826Z,20.60
2024-03-20T03:06:46.903Z,18.30
2024-03-20T03:09:20.773Z,19.00
2024-03-20T03:11:48.540Z,17.80
2024-03-20T03:14:17.960Z,17.40
2024-03-20T03:16:48.987Z,17.00
2024-03-20T03:19:18.807Z,16.20
2024-03-20T03:21:46.666Z,17.00
2024-03-20T03:24:15.660Z,16.90
2024-03-20T03:26:46.712Z,16.70
2024-03-20T03:29:14.974Z,16.30
2024-03-20T03:31:45.939Z,16.80
2024-03-20T03:34:19.158Z,17.40
2024-03-20T03:36:49.208Z,16.70
2024-03-20T03:39:17.302Z,18.20
2024-03-20T03:41:49.176Z,18.00
2024-03-20T03:44:24.398Z,17.60
2024-03-20T03:46:52.884Z,17.40
2024-03-20T03:49:29.563Z,17.90
2024-03-20T03:51:57.329Z,17.10
2024-03-20T03:54:24.991Z,16.70
2024-03-20T03:56:53.574Z,16.00
2024-03-20T03:59:25.332Z,15.90
2024-03-20T04:02:05.407Z,15.70
2024-03-20T04:04:36.802Z,16.20
2024-03-20T04:07:05.695Z,15.70
2024-03-20T04:09:33.796Z,15.10
2024-03-20T04:12:05.458Z,15.10
2024-03-20T04:14:33.838Z,15.80
2024-03-20T04:17:07.272Z,16.00
2024-03-20T04:27:23.400Z,13.50
2024-03-20T04:29:51.468Z,13.10
2024-03-20T04:32:21.935Z,13.60
2024-03-20T04:35:01.009Z,12.50
2024-03-20T04:37:29.192Z,12.80
2024-03-20T04:40:18.965Z,12.30
2024-03-20T04:42:47.044Z,12.00
2024-03-20T04:45:14.916Z,11.60
2024-03-20T04:47:44.777Z,11.20
2024-03-20T04:50:13.226Z,10.60
2024-03-20T04:52:43.524Z,10.10
2024-03-20T04:55:11.354Z,10.20
2024-03-20T04:57:39.360Z,10.10
2024-03-20T05:00:24.226Z,9.30
2024-03-20T05:10:35.967Z,8.70
2024-03-20T05:13:24.011Z,8.80
2024-03-20T05:15:51.983Z,8.90
2024-03-20T05:18:23.119Z,8.60
2024-03-20T05:21:06.008Z,8.60
2024-03-20T05:23:37.758Z,8.60
2024-03-20T05:26:10.397Z,8.20
2024-03-20T05:28:38.454Z,8.40
2024-03-20T05:31:26.392Z,8.70
2024-03-20T05:33:57.123Z,7.70
2024-03-20T05:36:27.252Z,9.20
2024-03-20T05:38:55.930Z,8.60
2024-03-20T05:41:23.899Z,8.40
2024-03-20T05:43:55.017Z,8.60
2024-03-20T05:49:13.544Z,8.00
2024-03-20T05:51:42.372Z,8.90
2024-03-20T05:54:16.015Z,8.40
2024-03-20T05:56:51.311Z,7.90
2024-03-20T06:01:25.064Z,8.80
2024-03-20T06:03:55.822Z,8.60
2024-03-20T06:06:31.801Z,8.70
2024-03-20T06:12:07.579Z,9.00
2024-03-20T06:14:41.812Z,9.30
2024-03-20T06:17:12.379Z,8.40
2024-03-20T06:19:40.364Z,8.60
2024-03-20T06:22:08.013Z,8.80
2024-03-20T06:24:41.013Z,8.80
2024-03-20T06:27:08.774Z,9.00
2024-03-20T06:29:39.153Z,9.60
2024-03-20T06:32:09.025Z,8.80
2024-03-20T06:34:37.180Z,8.50
2024-03-20T06:37:30.807Z,9.70
2024-03-20T06:39:58.619Z,9.20
2024-03-20T06:42:52.902Z,9.80
2024-03-20T06:47:54.800Z,9.00
2024-03-20T06:50:25.106Z,8.70
2024-03-20T06:53:01.884Z,9.40
2024-03-20T06:55:37.633Z,8.70
2024-03-20T06:58:07.348Z,9.20
2024-03-20T07:00:35.023Z,8.80
2024-03-20T07:03:07.388Z,8.90
2024-03-20T07:06:05.868Z,8.70
2024-03-20T07:08:39.168Z,8.60
2024-03-20T07:11:47.750Z,8.90
2024-03-20T07:14:28.655Z,8.40
2024-03-20T07:17:04.720Z,8.70
2024-03-20T07:19:33.929Z,8.50
2024-03-20T07:22:09.786Z,8.20
2024-03-20T07:24:41.325Z,9.00
2024-03-20T07:27:18.907Z,8.40
2024-03-20T07:29:51.401Z,8.30
2024-03-20T07:32:31.204Z,8.90
2024-03-20T07:35:16.331Z,8.40
2024-03-20T07:37:44.391Z,8.80
2024-03-20T07:40:22.893Z,8.50
2024-03-20T07:42:51.494Z,8.50
2024-03-20T07:55:34.994Z,8.20
2024-03-20T07:58:56.630Z,8.10
2024-03-20T08:01:30.242Z,8.90
2024-03-20T08:04:17.905Z,8.80
2024-03-20T08:07:02.534Z,9.40
2024-03-20T08:09:54.172Z,8.80
2024-03-20T08:13:20.446Z,9.20
2024-03-20T08:15:53.463Z,8.70
2024-03-20T08:18:37.106Z,9.30
2024-03-20T08:22:04.053Z,8.60
2024-03-20T08:24:51.991Z,9.10
2024-03-20T08:27:28.809Z,8.60
2024-03-20T08:30:30.655Z,9.60
2024-03-20T08:33:37.318Z,9.70
2024-03-20T08:36:13.472Z,9.70
2024-03-20T08:43:10.455Z,10.10
2024-03-20T08:46:52.043Z,10.60
2024-03-20T08:50:10.234Z,10.00
2024-03-20T08:53:36.078Z,9.50
2024-03-20T08:56:33.784Z,10.60
2024-03-20T09:06:07.617Z,12.70
2024-03-20T09:13:07.040Z,13.60
2024-03-20T09:16:25.082Z,13.20
2024-03-20T09:22:46.324Z,13.70
2024-03-20T09:25:21.490Z,13.40
2024-03-20T09:28:03.186Z,13.60
2024-03-20T09:30:38.768Z,14.20
2024-03-20T09:33:33.606Z,14.00
2024-03-20T09:36:53.422Z,14.00
2024-03-20T09:40:35.021Z,14.10
2024-03-20T09:43:53.575Z,13.50
2024-03-20T09:46:31.375Z,14.90
2024-03-20T09:49:42.010Z,13.40
2024-03-20T09:52:31.889Z,13.40
2024-03-20T09:54:59.590Z,13.80
2024-03-20T09:58:09.312Z,14.70
2024-03-20T10:03:28.124Z,14.50
2024-03-20T10:06:50.903Z,15.90
2024-03-20T10:09:22.542Z,15.80
2024-03-20T10:11:59.916Z,14.70
2024-03-20T10:15:25.179Z,15.30
2024-03-20T10:18:33.697Z,14.40
2024-03-20T10:21:36.094Z,16.80
2024-03-20T10:27:28.856Z,19.40
2024-03-20T10:30:00.238Z,21.00
2024-03-20T10:32:33.675Z,21.30
2024-03-20T10:35:21.793Z,21.20
2024-03-20T10:38:15.766Z,22.20
2024-03-20T10:42:01.880Z,20.20
2024-03-20T10:45:09.980Z,21.10
2024-03-20T10:47:47.113Z,20.90
2024-03-20T10:51:16.575Z,20.40
2024-03-20T10:54:05.743Z,20.10
2024-03-20T11:00:54.447Z,20.40
2024-03-20T11:11:22.022Z,20.80
2024-03-20T11:17:51.084Z,20.30
2024-03-20T11:20:46.786Z,21.20
2024-03-20T11:24:03.804Z,20.90
2024-03-20T11:30:39.009Z,20.00
2024-03-20T11:33:12.686Z,10.40
2024-03-20T11:44:47.800Z,0.80
2024-03-20T11:47:36.636Z,0.40
2024-03-20T11:51:10.149Z,0.50
2024-03-20T11:53:46.090Z,0.60
2024-03-20T11:57:14.439Z,0.70
2024-03-20T12:00:16.489Z,0.60
2024-03-20T12:08:00.952Z,0.50
2024-03-20T12:10:55.027Z,0.50
2024-03-20T12:13:31.396Z,0.40
2024-03-20T12:16:32.338Z,0.50
2024-03-20T12:19:51.468Z,0.40
2024-03-20T12:22:22.613Z,0.40
2024-03-20T12:25:14.322Z,0.30
2024-03-20T12:28:12.525Z,0.40
2024-03-20T12:33:42.973Z,0.50
2024-03-20T12:36:28.611Z,0.50
2024-03-20T12:40:41.196Z,0.60
2024-03-20T12:47:14.542Z,0.50
2024-03-20T12:49:57.834Z,0.60
2024-03-20T12:56:17.676Z,0.90
2024-03-20T12:59:07.612Z,0.70
2024-03-20T13:01:35.836Z,0.60
2024-03-20T13:09:33.146Z,0.90
2024-03-20T13:12:07.917Z,1.00
2024-03-20T13:20:53.938Z,0.40
2024-03-20T13:23:29.726Z,0.60
2024-03-20T13:26:05.838Z,0.30
2024-03-20T13:28:34.180Z,0.40
2024-03-20T13:31:09.322Z,0.40
2024-03-20T13:33:41.591Z,0.60
2024-03-20T13:36:28.038Z,0.50
2024-03-20T13:39:19.322Z,0.40
2024-03-20T13:41:59.566Z,0.60
2024-03-20T13:44:38.378Z,1.00
2024-03-20T13:47:27.781Z,0.70
2024-03-20T13:50:02.296Z,0.60
2024-03-20T13:52:37.238Z,0.70
2024-03-20T13:55:09.595Z,0.60
2024-03-20T13:57:49.969Z,0.50
2024-03-20T14:00:18.961Z,0.60
2024-03-20T14:02:50.368Z,0.60
2024-03-20T14:05:23.708Z,0.60
2024-03-20T14:07:59.144Z,0.60
2024-03-20T14:10:30.086Z,0.50
2024-03-20T14:13:10.528Z,0.60
2024-03-20T14:15:45.378Z,0.70
2024-03-20T14:18:14.011Z,0.60
2024-03-20T14:20:46.831Z,0.60
2024-03-20T14:23:20.951Z,0.60
2024-03-20T14:25:54.454Z,0.60
2024-03-20T14:28:25.911Z,0.60
2024-03-20T14:31:04.372Z,0.50
2024-03-20T14:33:57.481Z,0.50
2024-03-20T14:36:27.320Z,0.60
2024-03-20T14:39:12.367Z,0.60
2024-03-20T14:41:45.763Z,0.70
2024-03-20T14:44:15.068Z,0.60
2024-03-20T14:46:48.955Z,0.50
2024-03-20T14:49:30.296Z,0.80
2024-03-20T14:52:04.774Z,0.50
2024-03-20T14:54:39.035Z,0.70
2024-03-20T14:57:21.269Z,0.60
2024-03-20T14:59:55.617Z,0.50
2024-03-20T15:02:34.034Z,0.50
2024-03-20T15:05:15.244Z,0.60
2024-03-20T15:08:42.619Z,0.60
2024-03-20T15:11:21.354Z,0.50
2024-03-20T15:14:01.860Z,0.60
2024-03-20T15:16:32.830Z,0.50
2024-03-20T15:19:01.188Z,0.40
2024-03-20T15:21:34.878Z,0.50
2024-03-20T15:24:07.698Z,0.50
2024-03-20T15:26:41.683Z,0.50
2024-03-20T15:29:18.862Z,0.50
2024-03-20T15:31:53.595Z,0.60
2024-03-20T15:34:30.269Z,0.60
2024-03-20T15:37:02.952Z,0.50
2024-03-20T15:39:37.780Z,0.70
2024-03-20T15:42:28.904Z,0.60
2024-03-20T15:45:02.910Z,0.50
2024-03-20T15:47:41.617Z,0.40
2024-03-20T15:50:19.555Z,0.40
2024-03-20T15:52:48.112Z,0.60
2024-03-20T15:55:19.544Z,0.60
2024-03-20T15:57:51.329Z,0.60
2024-03-20T16:00:26.723Z,0.40
2024-03-20T16:02:58.649Z,0.50
2024-03-20T16:05:37.289Z,0.50
2024-03-20T16:08:11.012Z,0.60
2024-03-20T16:10:39.919Z,0.60
2024-03-20T16:13:08.836Z,0.50
2024-03-20T16:15:36.511Z,0.50
2024-03-20T16:18:28.742Z,0.60
2024-03-20T16:21:11.868Z,0.40
2024-03-20T16:23:50.487Z,0.60
2024-03-20T16:26:44.259Z,0.60
2024-03-20T16:29:30.168Z,0.60
2024-03-20T16:32:05.811Z,0.60
2024-03-20T16:34:45.348Z,0.70
2024-03-20T16:37:34.200Z,0.60
2024-03-20T16:40:13.108Z,0.80
2024-03-20T16:42:50.636Z,0.70
2024-03-20T16:45:38.761Z,0.70
2024-03-20T16:48:13.648Z,0.60
2024-03-20T16:50:44.031Z,0.50
2024-03-20T16:53:16.160Z,0.60
2024-03-20T16:55:58.206Z,0.60
2024-03-20T16:58:37.521Z,0.70
2024-03-20T17:04:22.320Z,0.70
2024-03-20T17:07:09.626Z,0.70
2024-03-20T17:09:48.450Z,0.60
2024-03-20T17:12:25.332Z,0.50
2024-03-20T17:14:59.860Z,0.50
2024-03-20T17:17:29.276Z,0.60
2024-03-20T17:20:07.641Z,0.60
2024-03-20T17:22:47.576Z,0.50
2024-03-20T17:25:32.247Z,0.50
2024-03-20T17:28:08.412Z,0.80
2024-03-20T17:30:49.525Z,0.60
2024-03-20T17:33:31.422Z,0.60
2024-03-20T17:36:00.411Z,0.50
2024-03-20T17:38:29.410Z,0.60
2024-03-20T17:41:12.224Z,0.50
2024-03-20T17:43:58.594Z,0.50
2024-03-20T17:46:40.932Z,0.60
2024-03-20T17:49:14.846Z,0.50
2024-03-20T17:51:59.174Z,0.60
2024-03-20T17:54:28.294Z,0.50
2024-03-20T17:56:57.149Z,0.60
2024-03-20T17:59:30.284Z,0.60
2024-03-20T18:02:09.713Z,0.50
2024-03-20T18:05:07.108Z,0.60
2024-03-20T18:07:58.186Z,0.50
2024-03-20T18:10:42.177Z,0.50
2024-03-20T18:13:36.520Z,0.50
2024-03-20T18:19:32.360Z,0.60
2024-03-20T18:22:10.978Z,0.60
2024-03-20T18:24:46.529Z,0.60
2024-03-20T18:27:20.745Z,0.50
2024-03-20T18:29:57.653Z,0.60
2024-03-20T18:32:30.940Z,0.50
2024-03-20T18:35:11.225Z,0.60
2024-03-20T18:37:44.173Z,0.50
2024-03-20T18:40:17.569Z,0.60
2024-03-20T18:42:47.391Z,0.40
2024-03-20T18:45:38.092Z,0.50
2024-03-20T18:48:10.077Z,0.50
2024-03-20T18:50:40.683Z,0.50
2024-03-20T18:53:10.705Z,0.50
2024-03-20T18:55:47.160Z,0.60
2024-03-20T18:58:20.352Z,0.50
2024-03-20T19:01:19.522Z,0.60
2024-03-20T19:04:02.052Z,0.50
2024-03-20T19:06:38.228Z,0.50
2024-03-20T19:09:21.574Z,0.50
2024-03-20T19:11:50.207Z,0.60
2024-03-20T19:14:21.591Z,0.50
2024-03-20T19:17:09.490Z,0.50
2024-03-20T19:27:38.889Z,0.50
2024-03-20T19:30:10.239Z,0.60
2024-03-20T19:32:46.145Z,0.50
2024-03-20T19:35:20.247Z,0.50
2024-03-20T19:38:16.447Z,0.50
2024-03-20T19:41:03.873Z,0.50
2024-03-20T19:43:44.941Z,0.50
2024-03-20T19:46:29.192Z,0.50
2024-03-20T19:49:27.374Z,0.50
2024-03-20T19:52:12.847Z,0.50
2024-03-20T19:55:10.832Z,0.50
2024-03-20T19:57:54.153Z,0.50
2024-03-20T20:06:43.672Z,0.40
2024-03-20T20:09:40.512Z,0.40
2024-03-20T20:12:26.407Z,0.60
2024-03-20T20:15:01.665Z,0.60
2024-03-20T20:17:46.411Z,0.60
2024-03-20T20:20:19.869Z,0.60
2024-03-20T20:23:06.328Z,0.60
2024-03-20T20:25:49.033Z,0.60
2024-03-20T20:28:31.635Z,0.60
2024-03-20T20:31:22.765Z,0.60
2024-03-20T20:33:59.482Z,0.50
2024-03-20T20:36:29.346Z,0.50
2024-03-20T20:39:11.085Z,0.50
2024-03-20T20:41:45.386Z,0.60
2024-03-20T20:44:17.107Z,0.60
2024-03-20T20:47:06.999Z,0.60
2024-03-20T20:49:34.658Z,0.60
2024-03-20T20:52:05.307Z,0.50
2024-03-20T20:54:34.918Z,0.50
2024-03-20T20:57:06.317Z,0.50
2024-03-20T20:59:33.918Z,0.60
2024-03-20T21:02:21.517Z,0.50
2024-03-20T21:05:12.953Z,0.60
2024-03-20T21:08:04.889Z,0.60
2024-03-20T21:10:55.808Z,0.50
2024-03-20T21:13:46.695Z,0.60
2024-03-20T21:16:35.667Z,0.70
2024-03-20T21:19:34.363Z,0.60
2024-03-20T21:22:06.141Z,0.60
2024-03-20T21:24:39.836Z,0.60
2024-03-20T21:27:13.236Z,0.50
2024-03-20T21:29:41.307Z,0.60
2024-03-20T21:32:19.859Z,0.50
2024-03-20T21:34:53.615Z,0.50
2024-03-20T21:37:28.653Z,0.50
2024-03-20T21:40:08.130Z,0.60
2024-03-20T21:42:38.757Z,0.50
2024-03-20T21:45:19.292Z,0.60
2024-03-20T21:47:57.397Z,0.60
2024-03-20T21:50:30.177Z,0.60
2024-03-20T21:53:00.518Z,0.60
2024-03-20T21:55:30.581Z,0.70
2024-03-20T21:58:14.338Z,0.60
2024-03-20T22:01:22.074Z,0.50
2024-03-20T22:04:01.001Z,0.60
2024-03-20T22:07:02.761Z,0.50
2024-03-20T22:10:05.014Z,0.70
2024-03-20T22:12:22.665Z,0.60
2024-03-20T22:14:56.872Z,0.60
2024-03-20T22:17:54.382Z,0.50
2024-03-20T22:20:52.832Z,0.60
2024-03-20T22:23:28.464Z,0.50
2024-03-20T22:26:00.085Z,0.50
2024-03-20T22:28:33.929Z,0.60
2024-03-20T22:31:07.327Z,0.50
2024-03-20T22:33:41.071Z,0.60
2024-03-20T22:36:21.710Z,0.60
2024-03-20T22:38:49.666Z,0.60
2024-03-20T22:41:23.095Z,0.60
2024-03-20T22:44:17.080Z,0.50
2024-03-20T22:46:54.959Z,0.50
2024-03-20T22:49:37.682Z,0.60
2024-03-20T22:52:17.820Z,0.50
2024-03-20T22:54:46.300Z,0.50
2024-03-20T22:57:18.703Z,0.50
2024-03-20T23:00:01.798Z,0.60
2024-03-20T23:02:39.707Z,0.50
2024-03-20T23:05:14.062Z,0.50
2024-03-20T23:07:51.786Z,0.60
2024-03-20T23:10:51.336Z,0.50
2024-03-20T23:13:24.538Z,0.60
2024-03-20T23:18:52.315Z,0.50
2024-03-20T23:21:32.098Z,0.60
2024-03-20T23:24:26.083Z,0.70
2024-03-20T23:27:05.571Z,0.60
2024-03-20T23:30:04.204Z,0.60
2024-03-20T23:32:39.102Z,0.50
2024-03-20T23:35:20.083Z,0.60
2024-03-20T23:37:53.381Z,0.60
2024-03-20T23:40:32.393Z,0.50
2024-03-20T23:43:08.761Z,0.60
2024-03-20T23:45:41.339Z,0.60
2024-03-20T23:48:16.929Z,0.60
2024-03-20T23:51:07.745Z,0.50
2024-03-20T23:53:48.686Z,0.50
2024-03-20T23:56:23.188Z,0.60
2024-03-20T23:59:58.334Z,0.50
